createdAt,value
2022-11-23T00:01:54.162Z,7.80
2022-11-23T00:04:22.481Z,7.93
2022-11-23T00:06:49.579Z,8.77
2022-11-23T00:09:16.706Z,8.67
2022-11-23T00:11:44.026Z,7.95
2022-11-23T00:14:11.263Z,7.82
2022-11-23T00:19:23.743Z,7.97
2022-11-23T00:21:53.558Z,9.30
2022-11-23T00:24:28.821Z,8.05
2022-11-23T00:26:56.048Z,8.95
2022-11-23T00:29:23.152Z,8.50
2022-11-23T00:31:50.270Z,7.78
2022-11-23T00:34:17.500Z,8.00
2022-11-23T00:36:44.594Z,7.90
2022-11-23T00:39:20.627Z,8.82
2022-11-23T00:41:48.439Z,8.02
2022-11-23T00:44:16.059Z,8.95
2022-11-23T00:46:43.409Z,7.63
2022-11-23T00:49:11.019Z,8.55
2022-11-23T00:51:40.814Z,7.85
2022-11-23T00:54:08.702Z,7.75
2022-11-23T00:56:37.184Z,8.23
2022-11-23T00:59:05.838Z,7.67
2022-11-23T01:01:34.405Z,7.53
2022-11-23T01:06:38.946Z,8.27
2022-11-23T01:09:08.386Z,8.02
2022-11-23T01:11:35.753Z,8.33
2022-11-23T01:14:02.977Z,8.25
2022-11-23T01:16:31.801Z,8.38
2022-11-23T01:19:00.932Z,7.72
2022-11-23T01:21:29.568Z,9.00
2022-11-23T01:23:57.690Z,7.30
2022-11-23T01:26:25.299Z,7.95
2022-11-23T01:28:52.786Z,7.72
2022-11-23T01:31:22.012Z,8.13
2022-11-23T01:33:53.533Z,7.75
2022-11-23T01:36:22.215Z,7.00
2022-11-23T01:38:49.657Z,7.22
2022-11-23T01:41:18.535Z,7.70
2022-11-23T01:43:46.170Z,7.25
2022-11-23T01:46:13.403Z,7.18
2022-11-23T01:48:40.443Z,6.60
2022-11-23T01:51:11.071Z,6.78
2022-11-23T01:53:38.272Z,7.13
2022-11-23T01:56:07.368Z,7.13
2022-11-23T01:58:40.807Z,6.65
2022-11-23T02:01:08.848Z,6.37
2022-11-23T02:03:37.191Z,6.38
2022-11-23T02:06:08.519Z,6.25
2022-11-23T02:08:36.291Z,6.72
2022-11-23T02:11:04.253Z,6.75
2022-11-23T02:13:31.914Z,5.73
2022-11-23T02:15:59.884Z,5.90
2022-11-23T02:18:29.805Z,6.35
2022-11-23T02:20:58.483Z,6.22
2022-11-23T02:23:38.742Z,5.80
2022-11-23T02:26:08.856Z,5.30
2022-11-23T02:28:42.261Z,4.95
2022-11-23T02:33:54.633Z,5.15
2022-11-23T02:36:45.593Z,5.00
2022-11-23T02:39:18.986Z,4.83
2022-11-23T02:41:48.901Z,5.00
2022-11-23T02:44:25.860Z,4.55
2022-11-23T02:46:53.791Z,5.25
2022-11-23T02:49:20.916Z,5.10
2022-11-23T02:51:48.018Z,4.93
2022-11-23T02:54:15.061Z,4.78
2022-11-23T02:56:42.358Z,5.82
2022-11-23T02:59:09.859Z,5.18
2022-11-23T03:01:45.942Z,5.07
2022-11-23T03:04:13.578Z,4.87
2022-11-23T03:06:41.417Z,5.10
2022-11-23T03:09:09.133Z,5.35
2022-11-23T03:11:36.598Z,5.15
2022-11-23T03:14:04.306Z,5.47
2022-11-23T03:16:31.577Z,5.60
2022-11-23T03:18:59.065Z,4.97
2022-11-23T03:21:26.697Z,5.00
2022-11-23T03:23:54.100Z,5.40
2022-11-23T03:26:21.567Z,5.20
2022-11-23T03:28:49.062Z,5.23
2022-11-23T03:31:16.424Z,5.30
2022-11-23T03:33:45.001Z,5.38
2022-11-23T03:36:12.199Z,5.10
2022-11-23T03:38:39.571Z,5.28
2022-11-23T03:41:06.773Z,5.23
2022-11-23T03:43:34.047Z,4.70
2022-11-23T03:46:01.356Z,5.60
2022-11-23T03:48:28.623Z,4.88
2022-11-23T03:50:56.083Z,5.15
2022-11-23T03:53:23.688Z,5.03
2022-11-23T03:55:51.319Z,5.13
2022-11-23T03:58:18.784Z,5.10
2022-11-23T04:00:46.374Z,5.13
2022-11-23T04:03:13.761Z,4.63
2022-11-23T04:05:41.302Z,4.00
2022-11-23T04:08:08.906Z,4.38
2022-11-23T04:10:36.359Z,4.15
2022-11-23T04:13:03.802Z,4.20
2022-11-23T04:15:31.421Z,4.10
2022-11-23T04:17:58.934Z,3.90
2022-11-23T04:20:26.482Z,3.55
2022-11-23T04:22:54.145Z,3.60
2022-11-23T04:25:21.508Z,3.80
2022-11-23T04:27:49.023Z,4.07
2022-11-23T04:30:16.454Z,4.30
2022-11-23T04:32:46.344Z,3.97
2022-11-23T04:35:13.581Z,4.30
2022-11-23T04:37:40.666Z,3.92
2022-11-23T04:40:08.101Z,4.07
2022-11-23T04:42:35.282Z,4.37
2022-11-23T04:45:03.462Z,4.10
2022-11-23T04:47:30.779Z,4.20
2022-11-23T04:49:57.850Z,5.00
2022-11-23T04:52:24.950Z,5.05
2022-11-23T04:54:52.015Z,4.40
2022-11-23T04:57:19.368Z,4.50
2022-11-23T04:59:46.784Z,4.10
2022-11-23T05:02:14.328Z,4.13
2022-11-23T05:04:41.724Z,4.10
2022-11-23T05:07:09.705Z,4.00
2022-11-23T05:09:36.975Z,3.83
2022-11-23T05:12:04.375Z,3.72
2022-11-23T05:14:31.864Z,3.33
2022-11-23T05:16:59.282Z,3.20
2022-11-23T05:19:27.659Z,3.63
2022-11-23T05:21:54.763Z,3.03
2022-11-23T05:24:22.108Z,3.17
2022-11-23T05:26:54.792Z,2.90
2022-11-23T05:29:33.282Z,2.80
2022-11-23T05:32:00.678Z,2.70
2022-11-23T05:34:27.813Z,2.95
2022-11-23T05:36:55.040Z,3.03
2022-11-23T05:39:22.930Z,3.55
2022-11-23T05:41:50.037Z,3.28
2022-11-23T05:44:17.098Z,3.00
2022-11-23T05:46:44.177Z,3.00
2022-11-23T05:49:11.387Z,3.42
2022-11-23T05:51:38.525Z,3.42
2022-11-23T05:54:05.928Z,3.10
2022-11-23T05:56:37.291Z,2.60
2022-11-23T05:59:08.359Z,3.45
2022-11-23T06:01:35.905Z,3.20
2022-11-23T06:04:03.457Z,3.13
2022-11-23T06:06:33.593Z,3.17
2022-11-23T06:09:03.992Z,3.50
2022-11-23T06:11:32.361Z,3.35
2022-11-23T06:13:59.542Z,3.05
2022-11-23T06:16:26.567Z,3.17
2022-11-23T06:18:53.646Z,3.10
2022-11-23T06:21:20.850Z,2.93
2022-11-23T06:23:48.540Z,3.13
2022-11-23T06:26:15.781Z,2.50
2022-11-23T06:28:43.415Z,2.40
2022-11-23T06:31:10.806Z,2.40
2022-11-23T06:33:38.085Z,2.10
2022-11-23T06:36:07.562Z,2.35
2022-11-23T06:38:34.613Z,2.10
2022-11-23T06:41:02.207Z,2.08
2022-11-23T06:43:29.464Z,2.10
2022-11-23T06:45:57.085Z,1.90
2022-11-23T06:48:24.315Z,1.80
2022-11-23T06:50:51.423Z,1.90
2022-11-23T06:53:18.478Z,1.85
2022-11-23T06:55:45.715Z,1.85
2022-11-23T06:58:12.904Z,1.53
2022-11-23T07:00:40.021Z,1.52
2022-11-23T07:03:07.399Z,1.58
2022-11-23T07:05:34.908Z,1.98
2022-11-23T07:08:02.270Z,1.50
2022-11-23T07:10:29.875Z,1.70
2022-11-23T07:13:04.765Z,1.60
2022-11-23T07:15:33.043Z,1.70
2022-11-23T07:18:03.260Z,2.03
2022-11-23T07:20:31.909Z,1.70
2022-11-23T07:23:02.864Z,2.40
2022-11-23T07:25:30.490Z,1.95
2022-11-23T07:27:58.117Z,2.30
2022-11-23T07:30:29.321Z,2.05
2022-11-23T07:33:02.840Z,2.08
2022-11-23T07:35:30.422Z,1.97
2022-11-23T07:37:57.634Z,1.67
2022-11-23T07:40:24.806Z,2.13
2022-11-23T07:42:52.085Z,2.60
2022-11-23T07:45:19.563Z,1.90
2022-11-23T07:47:46.777Z,1.93
2022-11-23T07:50:14.133Z,1.88
2022-11-23T07:52:41.758Z,1.60
2022-11-23T07:55:09.336Z,1.60
2022-11-23T07:57:36.714Z,1.67
2022-11-23T08:00:05.158Z,1.90
2022-11-23T08:02:32.877Z,1.80
2022-11-23T08:05:00.236Z,1.63
2022-11-23T08:07:27.792Z,1.80
2022-11-23T08:09:55.185Z,1.63
2022-11-23T08:12:22.638Z,2.10
2022-11-23T08:14:50.731Z,1.88
2022-11-23T08:17:17.995Z,1.60
2022-11-23T08:19:45.207Z,1.90
2022-11-23T08:22:15.779Z,1.90
2022-11-23T08:24:43.392Z,1.80
2022-11-23T08:27:10.749Z,1.80
2022-11-23T08:29:37.842Z,1.65
2022-11-23T08:32:05.025Z,2.85
2022-11-23T08:34:32.299Z,1.60
2022-11-23T08:36:59.557Z,1.73
2022-11-23T08:39:26.671Z,1.63
2022-11-23T08:41:53.757Z,1.52
2022-11-23T08:44:20.945Z,1.63
2022-11-23T08:46:48.135Z,1.50
2022-11-23T08:49:15.318Z,1.30
2022-11-23T08:51:48.552Z,1.55
2022-11-23T08:54:17.430Z,1.63
2022-11-23T08:56:49.412Z,1.90
2022-11-23T08:59:17.469Z,1.67
2022-11-23T09:01:45.054Z,1.77
2022-11-23T09:04:17.744Z,2.22
2022-11-23T09:06:57.206Z,1.48
2022-11-23T09:09:24.457Z,1.65
2022-11-23T09:11:53.041Z,1.58
2022-11-23T09:14:22.033Z,1.70
2022-11-23T09:16:49.590Z,1.70
2022-11-23T09:19:16.985Z,1.48
2022-11-23T09:21:47.643Z,1.50
2022-11-23T09:24:16.729Z,1.80
2022-11-23T09:26:44.151Z,1.67
2022-11-23T09:29:11.523Z,1.40
2022-11-23T09:31:39.487Z,1.55
2022-11-23T09:34:07.106Z,2.20
2022-11-23T09:36:34.425Z,1.27
2022-11-23T09:39:02.000Z,1.40
2022-11-23T09:41:32.318Z,1.17
2022-11-23T09:44:02.917Z,2.08
2022-11-23T09:46:32.943Z,1.23
2022-11-23T09:49:16.655Z,1.92
2022-11-23T09:51:44.944Z,1.40
2022-11-23T09:54:31.068Z,1.67
2022-11-23T10:02:21.645Z,1.75
2022-11-23T10:04:49.275Z,1.57
2022-11-23T10:07:26.884Z,1.67
2022-11-23T10:10:09.534Z,1.60
2022-11-23T10:12:43.034Z,1.55
2022-11-23T10:15:21.034Z,2.10
2022-11-23T10:17:50.832Z,1.63
2022-11-23T10:20:32.017Z,1.60
2022-11-23T10:23:01.540Z,1.73
2022-11-23T10:25:37.587Z,1.58
2022-11-23T10:28:16.476Z,1.52
2022-11-23T10:30:44.122Z,1.63
2022-11-23T10:33:23.998Z,1.40
2022-11-23T10:35:51.458Z,1.73
2022-11-23T10:38:21.494Z,1.45
2022-11-23T10:40:59.402Z,1.55
2022-11-23T10:43:30.830Z,1.10
2022-11-23T10:46:17.650Z,1.33
2022-11-23T10:48:47.155Z,1.45
2022-11-23T10:51:20.827Z,1.30
2022-11-23T10:53:58.486Z,1.80
2022-11-23T10:56:28.672Z,1.17
2022-11-23T10:58:56.333Z,1.88
2022-11-23T11:01:25.294Z,1.50
2022-11-23T11:03:53.585Z,1.30
2022-11-23T11:06:30.967Z,1.35
2022-11-23T11:09:03.236Z,1.33
2022-11-23T11:11:39.729Z,1.50
2022-11-23T11:14:07.899Z,1.48
2022-11-23T11:16:37.031Z,2.08
2022-11-23T11:19:24.118Z,1.70
2022-11-23T11:21:51.248Z,1.40
2022-11-23T11:24:20.020Z,1.17
2022-11-23T11:27:12.165Z,1.65
2022-11-23T11:29:45.821Z,1.58
2022-11-23T11:32:25.364Z,1.45
2022-11-23T11:35:10.617Z,1.23
2022-11-23T11:37:48.043Z,1.30
2022-11-23T11:40:18.232Z,1.30
2022-11-23T11:42:47.628Z,1.60
2022-11-23T11:45:23.902Z,1.10
2022-11-23T11:48:01.026Z,1.10
2022-11-23T11:50:32.131Z,1.33
2022-11-23T11:53:08.765Z,1.40
2022-11-23T11:55:45.746Z,1.80
2022-11-23T11:58:15.965Z,1.40
2022-11-23T12:00:45.415Z,1.30
2022-11-23T12:03:27.738Z,0.93
2022-11-23T12:05:56.580Z,1.27
2022-11-23T12:08:33.009Z,1.17
2022-11-23T12:11:02.339Z,1.38
2022-11-23T12:13:38.310Z,1.20
2022-11-23T12:16:16.696Z,1.30
2022-11-23T12:18:56.850Z,1.05
2022-11-23T12:21:40.093Z,1.02
2022-11-23T12:24:27.291Z,1.60
2022-11-23T12:27:00.598Z,1.23
2022-11-23T12:29:47.009Z,0.90
2022-11-23T12:32:34.418Z,1.00
2022-11-23T12:35:20.811Z,1.13
2022-11-23T12:37:48.359Z,1.00
2022-11-23T12:40:15.956Z,0.90
2022-11-23T12:42:53.024Z,1.00
2022-11-23T12:45:46.888Z,1.10
2022-11-23T12:48:33.301Z,1.20
2022-11-23T12:51:06.275Z,1.10
2022-11-23T12:53:51.558Z,1.00
2022-11-23T12:56:44.487Z,0.88
2022-11-23T12:59:12.270Z,1.10
2022-11-23T13:02:01.579Z,1.13
2022-11-23T13:04:44.159Z,0.95
2022-11-23T13:10:10.972Z,1.10
2022-11-23T13:12:44.252Z,0.93
2022-11-23T13:15:22.178Z,0.75
2022-11-23T13:18:11.774Z,1.05
2022-11-23T13:20:59.783Z,0.80
2022-11-23T13:23:27.777Z,0.98
2022-11-23T13:26:14.339Z,1.00
2022-11-23T13:28:42.142Z,0.88
2022-11-23T13:31:17.334Z,0.88
2022-11-23T13:33:46.067Z,1.03
2022-11-23T13:36:19.725Z,0.82
2022-11-23T13:38:47.258Z,0.90
2022-11-23T13:41:33.738Z,0.70
2022-11-23T13:44:13.445Z,0.70
2022-11-23T13:46:42.314Z,0.70
2022-11-23T13:49:34.271Z,1.10
2022-11-23T13:52:25.491Z,1.13
2022-11-23T13:54:55.670Z,1.33
2022-11-23T13:57:22.871Z,0.88
2022-11-23T13:59:50.158Z,0.80
2022-11-23T14:02:17.404Z,0.80
2022-11-23T14:04:46.941Z,0.80
2022-11-23T14:07:33.371Z,0.73
2022-11-23T14:10:08.318Z,0.90
2022-11-23T14:12:40.133Z,1.10
2022-11-23T14:15:09.722Z,1.33
2022-11-23T14:17:56.383Z,0.93
2022-11-23T14:20:27.082Z,0.82
2022-11-23T14:22:54.435Z,1.00
2022-11-23T14:25:35.820Z,0.90
2022-11-23T14:28:22.217Z,0.88
2022-11-23T14:30:58.530Z,0.90
2022-11-23T14:33:44.983Z,0.70
2022-11-23T14:36:16.475Z,0.90
2022-11-23T14:38:43.715Z,0.70
2022-11-23T14:41:17.900Z,1.00
2022-11-23T14:43:45.975Z,1.35
2022-11-23T14:46:19.402Z,0.90
2022-11-23T14:48:47.362Z,1.17
2022-11-23T14:51:18.275Z,0.80
2022-11-23T14:53:53.859Z,1.08
2022-11-23T14:56:33.400Z,1.00
2022-11-23T14:59:05.428Z,0.90
2022-11-23T15:01:33.014Z,1.30
2022-11-23T15:04:02.002Z,1.17
2022-11-23T15:06:34.806Z,0.98
2022-11-23T15:09:25.158Z,1.00
2022-11-23T15:11:52.715Z,1.13
2022-11-23T15:14:21.711Z,1.40
2022-11-23T15:16:49.556Z,1.10
2022-11-23T15:19:20.510Z,1.10
2022-11-23T15:21:49.295Z,1.15
2022-11-23T15:24:24.442Z,1.10
2022-11-23T15:26:52.936Z,1.20
2022-11-23T15:29:30.136Z,1.03
2022-11-23T15:34:45.501Z,1.02
2022-11-23T15:37:13.115Z,1.10
2022-11-23T15:39:40.232Z,1.00
2022-11-23T15:42:07.806Z,0.97
2022-11-23T15:44:39.423Z,1.17
2022-11-23T15:47:08.110Z,1.00
2022-11-23T15:49:39.973Z,0.95
2022-11-23T15:52:08.080Z,1.20
2022-11-23T15:54:37.498Z,1.00
2022-11-23T15:57:08.563Z,0.82
2022-11-23T15:59:49.844Z,1.10
2022-11-23T16:02:19.016Z,1.13
2022-11-23T16:04:47.008Z,2.28
2022-11-23T16:07:22.089Z,2.10
2022-11-23T16:10:04.406Z,4.03
2022-11-23T16:12:33.795Z,2.58
2022-11-23T16:15:27.755Z,1.98
2022-11-23T16:17:55.515Z,3.17
2022-11-23T16:20:26.707Z,3.20
2022-11-23T16:22:54.491Z,3.83
2022-11-23T16:25:32.525Z,2.45
2022-11-23T16:28:02.743Z,3.22
2022-11-23T16:30:37.930Z,2.80
2022-11-23T16:33:06.262Z,2.10
2022-11-23T16:35:33.716Z,2.33
2022-11-23T16:38:01.245Z,2.50
2022-11-23T16:40:28.590Z,3.45
2022-11-23T16:42:56.087Z,2.40
2022-11-23T16:45:23.865Z,2.30
2022-11-23T16:48:00.974Z,2.50
2022-11-23T16:50:32.939Z,2.88
2022-11-23T16:53:10.606Z,3.00
2022-11-23T16:55:43.765Z,3.38
2022-11-23T16:58:14.736Z,3.43
2022-11-23T17:00:51.215Z,3.58
2022-11-23T17:03:19.439Z,3.65
2022-11-23T17:05:46.980Z,3.50
2022-11-23T17:08:19.830Z,3.72
2022-11-23T17:10:51.517Z,3.60
2022-11-23T17:13:24.320Z,3.67
2022-11-23T17:15:52.183Z,4.28
2022-11-23T17:18:19.970Z,4.05
2022-11-23T17:20:47.187Z,3.90
2022-11-23T17:23:14.489Z,4.07
2022-11-23T17:25:41.937Z,4.47
2022-11-23T17:28:15.033Z,4.97
2022-11-23T17:30:42.421Z,5.00
2022-11-23T17:33:13.163Z,4.80
2022-11-23T17:35:41.476Z,5.00
2022-11-23T17:38:15.183Z,5.18
2022-11-23T17:40:42.615Z,5.03
2022-11-23T17:43:14.062Z,5.00
2022-11-23T17:45:41.634Z,4.95
2022-11-23T17:48:11.181Z,5.10
2022-11-23T17:50:38.262Z,5.07
2022-11-23T17:53:05.542Z,5.38
2022-11-23T17:55:32.857Z,5.40
2022-11-23T17:58:00.104Z,5.35
2022-11-23T18:00:28.816Z,5.63
2022-11-23T18:02:55.952Z,5.10
2022-11-23T18:05:23.142Z,5.38
2022-11-23T18:07:51.359Z,4.75
2022-11-23T18:10:18.693Z,4.95
2022-11-23T18:12:46.213Z,4.63
2022-11-23T18:15:13.542Z,4.75
2022-11-23T18:17:40.786Z,5.00
2022-11-23T18:20:10.215Z,5.28
2022-11-23T18:22:37.669Z,4.78
2022-11-23T18:25:04.967Z,4.80
2022-11-23T18:27:33.253Z,4.45
2022-11-23T18:30:00.432Z,5.13
2022-11-23T18:32:28.706Z,4.90
2022-11-23T18:34:55.882Z,5.18
2022-11-23T18:37:23.085Z,4.77
2022-11-23T18:39:50.402Z,4.80
2022-11-23T18:42:17.771Z,5.30
2022-11-23T18:44:45.188Z,5.20
2022-11-23T18:47:12.625Z,5.45
2022-11-23T18:49:39.994Z,5.03
2022-11-23T18:52:09.048Z,5.10
2022-11-23T18:54:36.205Z,5.22
2022-11-23T18:57:03.803Z,4.88
2022-11-23T19:02:18.849Z,4.63
2022-11-23T19:04:47.066Z,4.80
2022-11-23T19:07:14.955Z,5.20
2022-11-23T19:09:42.822Z,4.78
2022-11-23T19:12:14.134Z,4.35
2022-11-23T19:14:43.524Z,4.97
2022-11-23T19:17:10.691Z,4.68
2022-11-23T19:19:38.413Z,4.90
2022-11-23T19:22:07.824Z,5.15
2022-11-23T19:24:36.474Z,5.35
2022-11-23T19:27:04.274Z,4.70
2022-11-23T19:29:31.936Z,4.70
2022-11-23T19:31:59.460Z,4.82
2022-11-23T19:34:26.983Z,4.50
2022-11-23T19:36:54.931Z,4.85
2022-11-23T19:39:22.479Z,5.10
2022-11-23T19:41:50.145Z,4.60
2022-11-23T19:44:17.701Z,4.32
2022-11-23T19:46:45.392Z,4.68
2022-11-23T19:49:13.050Z,4.68
2022-11-23T19:51:40.582Z,4.53
2022-11-23T19:54:10.508Z,4.90
2022-11-23T19:56:38.366Z,4.75
2022-11-23T19:59:06.555Z,4.53
2022-11-23T20:01:34.724Z,5.38
2022-11-23T20:04:08.577Z,4.90
2022-11-23T20:06:41.097Z,4.53
2022-11-23T20:09:12.852Z,4.28
2022-11-23T20:11:40.979Z,4.38
2022-11-23T20:14:08.269Z,4.70
2022-11-23T20:16:35.658Z,4.33
2022-11-23T20:19:03.900Z,4.82
2022-11-23T20:21:31.774Z,5.50
2022-11-23T20:24:04.839Z,4.88
2022-11-23T20:26:36.615Z,4.90
2022-11-23T20:29:05.104Z,5.17
2022-11-23T20:31:32.579Z,4.63
2022-11-23T20:34:00.256Z,4.53
2022-11-23T20:36:39.672Z,4.05
2022-11-23T20:39:08.355Z,4.50
2022-11-23T20:41:36.927Z,4.40
2022-11-23T20:44:11.485Z,4.40
2022-11-23T20:47:01.946Z,4.93
2022-11-23T20:49:27.669Z,4.20
2022-11-23T20:51:57.694Z,4.75
2022-11-23T20:54:25.553Z,4.63
2022-11-23T20:56:53.590Z,4.43
2022-11-23T20:59:21.362Z,4.78
2022-11-23T21:01:49.171Z,4.63
2022-11-23T21:04:16.928Z,4.72
2022-11-23T21:06:44.547Z,4.73
2022-11-23T21:09:12.396Z,4.40
2022-11-23T21:11:58.397Z,5.00
2022-11-23T21:14:30.918Z,4.45
2022-11-23T21:16:59.345Z,4.38
2022-11-23T21:19:28.785Z,4.80
2022-11-23T21:21:57.571Z,3.97
2022-11-23T21:24:25.646Z,4.18
2022-11-23T21:26:53.273Z,3.28
2022-11-23T21:29:21.062Z,4.20
2022-11-23T21:31:50.165Z,4.13
2022-11-23T21:34:22.020Z,4.03
2022-11-23T21:36:49.583Z,4.63
2022-11-23T21:39:18.368Z,4.32
2022-11-23T21:41:46.643Z,4.32
2022-11-23T21:44:14.078Z,5.00
2022-11-23T21:46:41.756Z,4.55
2022-11-23T21:49:10.805Z,4.35
2022-11-23T21:51:38.972Z,4.00
2022-11-23T21:54:16.147Z,4.82
2022-11-23T21:56:44.441Z,4.60
2022-11-23T21:59:12.049Z,4.35
2022-11-23T22:01:39.748Z,4.38
2022-11-23T22:04:11.378Z,4.07
2022-11-23T22:06:39.240Z,4.20
2022-11-23T22:09:08.022Z,4.60
2022-11-23T22:11:36.104Z,3.83
2022-11-23T22:14:08.112Z,4.05
2022-11-23T22:16:37.345Z,4.88
2022-11-23T22:19:06.643Z,4.45
2022-11-23T22:21:35.435Z,4.20
2022-11-23T22:24:03.194Z,3.45
2022-11-23T22:26:31.061Z,4.53
2022-11-23T22:29:02.658Z,3.70
2022-11-23T22:31:32.978Z,3.83
2022-11-23T22:34:00.722Z,3.97
2022-11-23T22:36:27.973Z,4.38
2022-11-23T22:39:01.016Z,4.07
2022-11-23T22:41:29.124Z,3.67
2022-11-23T22:43:56.773Z,3.63
2022-11-23T22:46:27.744Z,3.63
2022-11-23T22:48:59.520Z,3.60
2022-11-23T22:51:30.054Z,3.45
2022-11-23T22:53:58.692Z,3.20
2022-11-23T22:56:26.441Z,3.28
2022-11-23T22:58:55.178Z,3.17
2022-11-23T23:01:23.441Z,3.40
2022-11-23T23:03:58.124Z,2.80
2022-11-23T23:06:26.748Z,2.70
2022-11-23T23:08:58.035Z,3.45
2022-11-23T23:11:26.127Z,2.50
2022-11-23T23:13:53.769Z,3.28
2022-11-23T23:16:21.353Z,3.03
2022-11-23T23:18:49.053Z,3.13
2022-11-23T23:21:17.534Z,2.70
2022-11-23T23:23:46.174Z,4.03
2022-11-23T23:26:14.296Z,2.80
2022-11-23T23:28:41.845Z,2.85
2022-11-23T23:31:10.640Z,3.20
2022-11-23T23:33:38.513Z,2.90
2022-11-23T23:36:09.878Z,2.43
2022-11-23T23:38:37.494Z,3.25
2022-11-23T23:41:05.189Z,2.92
2022-11-23T23:43:32.633Z,3.00
2022-11-23T23:46:01.271Z,2.72
2022-11-23T23:48:32.464Z,2.60
2022-11-23T23:50:59.623Z,3.30
2022-11-23T23:53:26.966Z,2.83
2022-11-23T23:56:01.156Z,2.83
2022-11-23T23:58:29.804Z,2.50
